Terminal Aerodrome Forecast
Issued by NWS

Home | Current Version | Previous Version | Text Only | Print | Product List | Glossary On
Versions: 1 2 3 4 5 6 7 8 9 10 11 12 13 14 15 16 17 18 19 20 21 22 23 24 25 26 27 28 29 30 31 32 33 34 35 36 37 38 39 40 41 42 43 44 45
000
FTUS46 KOTX 271739
TAFSFF
TAF
KSFF 271739Z 2718/2818 23006KT P6SM BKN070 WS020/23040KT
     FM271900 23022G32KT P6SM BKN080
     FM280500 20008KT P6SM SCT050 OVC100 WS020/22040KT
     FM281500 21012KT P6SM -RA BKN040 OVC050=

USA.gov is the U.S. government's official web portal to all federal, state and local government web resources and services.